sensor_id;sensor_type;location;lat;lon;timestamp;P1;durP1;ratioP1;P2;durP2;ratioP2
35576;SDS011;21680;52.400;16.920;2023-05-27T00:00:00;24.30;;;4.20;;
35576;SDS011;21680;52.400;16.920;2023-05-27T00:02:25;27.80;;;4.40;;
35576;SDS011;21680;52.400;16.920;2023-05-27T00:04:51;16.70;;;4.20;;
35576;SDS011;21680;52.400;16.920;2023-05-27T00:07:17;29.80;;;4.60;;
35576;SDS011;21680;52.400;16.920;2023-05-27T00:09:42;29.10;;;4.50;;
35576;SDS011;21680;52.400;16.920;2023-05-27T00:12:07;18.60;;;3.90;;
35576;SDS011;21680;52.400;16.920;2023-05-27T00:14:32;25.80;;;4.80;;
35576;SDS011;21680;52.400;16.920;2023-05-27T00:16:58;20.00;;;3.70;;
35576;SDS011;21680;52.400;16.920;2023-05-27T00:19:24;23.80;;;5.80;;
35576;SDS011;21680;52.400;16.920;2023-05-27T00:21:49;23.60;;;5.40;;
35576;SDS011;21680;52.400;16.920;2023-05-27T00:24:17;18.60;;;4.80;;
35576;SDS011;21680;52.400;16.920;2023-05-27T00:26:43;15.10;;;5.70;;
35576;SDS011;21680;52.400;16.920;2023-05-27T00:29:08;21.20;;;4.90;;
35576;SDS011;21680;52.400;16.920;2023-05-27T00:31:34;18.80;;;4.40;;
35576;SDS011;21680;52.400;16.920;2023-05-27T00:33:59;24.40;;;4.80;;
35576;SDS011;21680;52.400;16.920;2023-05-27T00:36:24;18.90;;;5.20;;
35576;SDS011;21680;52.400;16.920;2023-05-27T00:38:50;25.80;;;5.30;;
35576;SDS011;21680;52.400;16.920;2023-05-27T00:41:15;18.20;;;4.90;;
35576;SDS011;21680;52.400;16.920;2023-05-27T00:43:40;24.30;;;5.90;;
35576;SDS011;21680;52.400;16.920;2023-05-27T00:46:05;24.60;;;5.00;;
35576;SDS011;21680;52.400;16.920;2023-05-27T00:48:31;23.80;;;5.20;;
35576;SDS011;21680;52.400;16.920;2023-05-27T00:50:56;22.00;;;4.90;;
35576;SDS011;21680;52.400;16.920;2023-05-27T00:53:23;28.10;;;5.20;;
35576;SDS011;21680;52.400;16.920;2023-05-27T00:55:49;22.80;;;4.40;;
35576;SDS011;21680;52.400;16.920;2023-05-27T00:58:17;17.50;;;4.20;;
35576;SDS011;21680;52.400;16.920;2023-05-27T01:00:46;21.60;;;5.00;;
35576;SDS011;21680;52.400;16.920;2023-05-27T01:03:11;18.20;;;3.60;;
35576;SDS011;21680;52.400;16.920;2023-05-27T01:05:37;18.20;;;4.50;;
35576;SDS011;21680;52.400;16.920;2023-05-27T01:08:05;30.70;;;5.80;;
35576;SDS011;21680;52.400;16.920;2023-05-27T01:10:46;12.00;;;3.30;;
35576;SDS011;21680;52.400;16.920;2023-05-27T01:13:16;22.10;;;5.10;;
35576;SDS011;21680;52.400;16.920;2023-05-27T01:15:55;27.00;;;4.50;;
35576;SDS011;21680;52.400;16.920;2023-05-27T01:18:26;21.90;;;4.40;;
35576;SDS011;21680;52.400;16.920;2023-05-27T01:20:55;15.60;;;4.50;;
35576;SDS011;21680;52.400;16.920;2023-05-27T01:23:27;25.40;;;4.30;;
35576;SDS011;21680;52.400;16.920;2023-05-27T01:25:54;23.50;;;5.20;;
35576;SDS011;21680;52.400;16.920;2023-05-27T01:28:19;29.60;;;4.90;;
35576;SDS011;21680;52.400;16.920;2023-05-27T01:30:44;25.20;;;5.70;;
35576;SDS011;21680;52.400;16.920;2023-05-27T01:33:12;23.60;;;4.80;;
35576;SDS011;21680;52.400;16.920;2023-05-27T01:35:46;19.80;;;4.30;;
35576;SDS011;21680;52.400;16.920;2023-05-27T01:38:16;21.60;;;5.60;;
35576;SDS011;21680;52.400;16.920;2023-05-27T01:40:44;33.30;;;6.60;;
35576;SDS011;21680;52.400;16.920;2023-05-27T01:43:10;20.60;;;5.00;;
35576;SDS011;21680;52.400;16.920;2023-05-27T01:45:37;22.40;;;4.50;;
35576;SDS011;21680;52.400;16.920;2023-05-27T01:48:03;24.20;;;5.60;;
35576;SDS011;21680;52.400;16.920;2023-05-27T01:50:28;21.90;;;4.90;;
35576;SDS011;21680;52.400;16.920;2023-05-27T01:52:55;21.60;;;4.90;;
35576;SDS011;21680;52.400;16.920;2023-05-27T01:55:21;21.80;;;4.90;;
35576;SDS011;21680;52.400;16.920;2023-05-27T01:57:47;24.30;;;4.90;;
35576;SDS011;21680;52.400;16.920;2023-05-27T02:00:12;21.10;;;4.70;;
35576;SDS011;21680;52.400;16.920;2023-05-27T02:02:38;27.20;;;4.90;;
35576;SDS011;21680;52.400;16.920;2023-05-27T02:05:04;24.00;;;5.50;;
35576;SDS011;21680;52.400;16.920;2023-05-27T02:07:29;21.30;;;5.30;;
35576;SDS011;21680;52.400;16.920;2023-05-27T02:09:54;21.20;;;4.60;;
35576;SDS011;21680;52.400;16.920;2023-05-27T02:12:20;24.50;;;4.90;;
35576;SDS011;21680;52.400;16.920;2023-05-27T02:14:45;28.80;;;5.00;;
35576;SDS011;21680;52.400;16.920;2023-05-27T02:17:11;22.60;;;5.10;;
35576;SDS011;21680;52.400;16.920;2023-05-27T02:19:39;19.90;;;4.60;;
35576;SDS011;21680;52.400;16.920;2023-05-27T02:22:05;24.00;;;5.40;;
35576;SDS011;21680;52.400;16.920;2023-05-27T02:24:30;18.40;;;5.90;;
35576;SDS011;21680;52.400;16.920;2023-05-27T02:26:56;18.80;;;5.80;;
35576;SDS011;21680;52.400;16.920;2023-05-27T02:29:21;19.60;;;5.50;;
35576;SDS011;21680;52.400;16.920;2023-05-27T02:31:46;19.60;;;5.20;;
35576;SDS011;21680;52.400;16.920;2023-05-27T02:34:11;19.10;;;5.00;;
35576;SDS011;21680;52.400;16.920;2023-05-27T02:36:37;17.30;;;5.50;;
35576;SDS011;21680;52.400;16.920;2023-05-27T02:39:02;23.10;;;5.20;;
35576;SDS011;21680;52.400;16.920;2023-05-27T02:41:27;26.40;;;5.40;;
35576;SDS011;21680;52.400;16.920;2023-05-27T02:43:54;22.80;;;5.30;;
35576;SDS011;21680;52.400;16.920;2023-05-27T02:46:19;32.20;;;7.20;;
35576;SDS011;21680;52.400;16.920;2023-05-27T02:48:45;18.90;;;5.50;;
35576;SDS011;21680;52.400;16.920;2023-05-27T02:51:11;28.80;;;5.90;;
35576;SDS011;21680;52.400;16.920;2023-05-27T02:53:36;26.90;;;5.70;;
35576;SDS011;21680;52.400;16.920;2023-05-27T02:56:01;23.60;;;4.90;;
35576;SDS011;21680;52.400;16.920;2023-05-27T02:58:27;20.60;;;4.50;;
35576;SDS011;21680;52.400;16.920;2023-05-27T03:00:52;33.20;;;7.30;;
35576;SDS011;21680;52.400;16.920;2023-05-27T03:03:17;21.00;;;4.50;;
35576;SDS011;21680;52.400;16.920;2023-05-27T03:05:42;31.90;;;5.60;;
35576;SDS011;21680;52.400;16.920;2023-05-27T03:08:08;19.20;;;5.10;;
35576;SDS011;21680;52.400;16.920;2023-05-27T03:10:33;17.80;;;5.60;;
35576;SDS011;21680;52.400;16.920;2023-05-27T03:12:58;27.80;;;4.70;;
35576;SDS011;21680;52.400;16.920;2023-05-27T03:15:24;38.30;;;6.40;;
35576;SDS011;21680;52.400;16.920;2023-05-27T03:17:49;23.70;;;5.70;;
35576;SDS011;21680;52.400;16.920;2023-05-27T03:20:15;21.70;;;4.60;;
35576;SDS011;21680;52.400;16.920;2023-05-27T03:22:41;18.10;;;4.90;;
35576;SDS011;21680;52.400;16.920;2023-05-27T03:25:07;26.40;;;5.40;;
35576;SDS011;21680;52.400;16.920;2023-05-27T03:27:33;25.40;;;5.10;;
35576;SDS011;21680;52.400;16.920;2023-05-27T03:29:59;21.30;;;5.10;;
35576;SDS011;21680;52.400;16.920;2023-05-27T03:32:24;18.70;;;4.80;;
35576;SDS011;21680;52.400;16.920;2023-05-27T03:34:50;34.60;;;5.80;;
35576;SDS011;21680;52.400;16.920;2023-05-27T03:37:15;21.50;;;5.20;;
35576;SDS011;21680;52.400;16.920;2023-05-27T03:39:40;23.30;;;5.90;;
35576;SDS011;21680;52.400;16.920;2023-05-27T03:42:06;18.80;;;5.20;;
35576;SDS011;21680;52.400;16.920;2023-05-27T03:44:32;19.80;;;5.30;;
35576;SDS011;21680;52.400;16.920;2023-05-27T03:46:57;26.80;;;5.40;;
35576;SDS011;21680;52.400;16.920;2023-05-27T03:49:22;28.00;;;6.10;;
35576;SDS011;21680;52.400;16.920;2023-05-27T03:51:48;19.70;;;5.20;;
35576;SDS011;21680;52.400;16.920;2023-05-27T03:54:14;24.20;;;5.70;;
35576;SDS011;21680;52.400;16.920;2023-05-27T03:56:39;25.50;;;5.90;;
35576;SDS011;21680;52.400;16.920;2023-05-27T03:59:05;24.10;;;5.40;;
35576;SDS011;21680;52.400;16.920;2023-05-27T04:01:31;22.90;;;5.50;;
35576;SDS011;21680;52.400;16.920;2023-05-27T04:03:57;29.20;;;7.10;;
35576;SDS011;21680;52.400;16.920;2023-05-27T04:06:22;24.50;;;4.60;;
35576;SDS011;21680;52.400;16.920;2023-05-27T04:08:48;21.70;;;4.90;;
35576;SDS011;21680;52.400;16.920;2023-05-27T04:11:13;24.60;;;5.70;;
35576;SDS011;21680;52.400;16.920;2023-05-27T04:13:39;25.40;;;5.20;;
35576;SDS011;21680;52.400;16.920;2023-05-27T04:16:05;22.00;;;5.80;;
35576;SDS011;21680;52.400;16.920;2023-05-27T04:18:32;15.70;;;5.30;;
35576;SDS011;21680;52.400;16.920;2023-05-27T04:20:57;19.90;;;5.70;;
35576;SDS011;21680;52.400;16.920;2023-05-27T04:23:23;22.80;;;5.40;;
35576;SDS011;21680;52.400;16.920;2023-05-27T04:25:48;25.90;;;5.50;;
35576;SDS011;21680;52.400;16.920;2023-05-27T04:28:14;28.30;;;6.00;;
35576;SDS011;21680;52.400;16.920;2023-05-27T04:30:40;26.30;;;5.80;;
35576;SDS011;21680;52.400;16.920;2023-05-27T04:33:06;18.70;;;4.60;;
35576;SDS011;21680;52.400;16.920;2023-05-27T04:35:32;23.80;;;5.20;;
35576;SDS011;21680;52.400;16.920;2023-05-27T04:37:58;25.10;;;4.70;;
35576;SDS011;21680;52.400;16.920;2023-05-27T04:40:26;16.20;;;4.20;;
35576;SDS011;21680;52.400;16.920;2023-05-27T04:42:51;22.30;;;5.50;;
35576;SDS011;21680;52.400;16.920;2023-05-27T04:45:17;19.40;;;5.70;;
35576;SDS011;21680;52.400;16.920;2023-05-27T04:47:43;17.50;;;4.80;;
35576;SDS011;21680;52.400;16.920;2023-05-27T04:50:09;20.40;;;4.90;;
35576;SDS011;21680;52.400;16.920;2023-05-27T04:52:36;34.10;;;5.60;;
35576;SDS011;21680;52.400;16.920;2023-05-27T04:55:07;17.00;;;4.60;;
35576;SDS011;21680;52.400;16.920;2023-05-27T04:57:34;15.40;;;4.70;;
35576;SDS011;21680;52.400;16.920;2023-05-27T05:00:01;21.60;;;5.00;;
35576;SDS011;21680;52.400;16.920;2023-05-27T05:02:33;20.10;;;6.50;;
35576;SDS011;21680;52.400;16.920;2023-05-27T05:05:03;22.50;;;5.30;;
35576;SDS011;21680;52.400;16.920;2023-05-27T05:07:33;19.40;;;4.70;;
35576;SDS011;21680;52.400;16.920;2023-05-27T05:10:00;17.40;;;5.00;;
35576;SDS011;21680;52.400;16.920;2023-05-27T05:12:25;29.80;;;6.10;;
35576;SDS011;21680;52.400;16.920;2023-05-27T05:14:51;19.90;;;4.70;;
35576;SDS011;21680;52.400;16.920;2023-05-27T05:17:17;21.00;;;5.30;;
35576;SDS011;21680;52.400;16.920;2023-05-27T05:19:43;25.30;;;6.10;;
35576;SDS011;21680;52.400;16.920;2023-05-27T05:22:09;20.70;;;5.70;;
35576;SDS011;21680;52.400;16.920;2023-05-27T05:24:36;19.90;;;4.90;;
35576;SDS011;21680;52.400;16.920;2023-05-27T05:27:01;20.70;;;4.70;;
35576;SDS011;21680;52.400;16.920;2023-05-27T05:29:26;16.40;;;5.80;;
35576;SDS011;21680;52.400;16.920;2023-05-27T05:31:51;19.30;;;4.80;;
35576;SDS011;21680;52.400;16.920;2023-05-27T05:34:17;21.00;;;5.40;;
35576;SDS011;21680;52.400;16.920;2023-05-27T05:36:42;19.20;;;5.00;;
35576;SDS011;21680;52.400;16.920;2023-05-27T05:39:07;18.60;;;6.00;;
35576;SDS011;21680;52.400;16.920;2023-05-27T05:41:33;24.10;;;4.90;;
35576;SDS011;21680;52.400;16.920;2023-05-27T05:43:58;16.40;;;5.30;;
35576;SDS011;21680;52.400;16.920;2023-05-27T05:46:23;18.60;;;4.90;;
35576;SDS011;21680;52.400;16.920;2023-05-27T05:48:51;22.70;;;5.90;;
35576;SDS011;21680;52.400;16.920;2023-05-27T05:51:17;19.60;;;5.30;;
35576;SDS011;21680;52.400;16.920;2023-05-27T05:53:42;14.40;;;4.50;;
35576;SDS011;21680;52.400;16.920;2023-05-27T05:56:07;36.90;;;6.50;;
35576;SDS011;21680;52.400;16.920;2023-05-27T05:58:32;22.70;;;5.80;;
35576;SDS011;21680;52.400;16.920;2023-05-27T06:00:58;34.40;;;5.90;;
35576;SDS011;21680;52.400;16.920;2023-05-27T06:03:23;28.80;;;7.00;;
35576;SDS011;21680;52.400;16.920;2023-05-27T06:05:49;21.70;;;5.60;;
35576;SDS011;21680;52.400;16.920;2023-05-27T06:08:14;21.10;;;5.60;;
35576;SDS011;21680;52.400;16.920;2023-05-27T06:10:39;21.40;;;4.90;;
35576;SDS011;21680;52.400;16.920;2023-05-27T06:13:04;21.50;;;5.70;;
35576;SDS011;21680;52.400;16.920;2023-05-27T06:15:30;23.20;;;5.40;;
35576;SDS011;21680;52.400;16.920;2023-05-27T06:17:56;20.50;;;5.10;;
35576;SDS011;21680;52.400;16.920;2023-05-27T06:20:21;28.80;;;5.90;;
35576;SDS011;21680;52.400;16.920;2023-05-27T06:22:48;18.50;;;4.20;;
35576;SDS011;21680;52.400;16.920;2023-05-27T06:25:13;19.80;;;5.00;;
35576;SDS011;21680;52.400;16.920;2023-05-27T06:27:39;20.20;;;4.10;;
35576;SDS011;21680;52.400;16.920;2023-05-27T06:30:04;20.60;;;5.40;;
35576;SDS011;21680;52.400;16.920;2023-05-27T06:32:31;15.60;;;4.20;;
35576;SDS011;21680;52.400;16.920;2023-05-27T06:34:56;25.80;;;4.40;;
35576;SDS011;21680;52.400;16.920;2023-05-27T06:37:21;14.90;;;3.40;;
35576;SDS011;21680;52.400;16.920;2023-05-27T06:39:46;19.70;;;3.90;;
35576;SDS011;21680;52.400;16.920;2023-05-27T06:42:12;13.50;;;3.60;;
35576;SDS011;21680;52.400;16.920;2023-05-27T06:44:38;13.80;;;3.80;;
35576;SDS011;21680;52.400;16.920;2023-05-27T06:47:04;13.50;;;3.70;;
35576;SDS011;21680;52.400;16.920;2023-05-27T06:49:29;14.10;;;3.10;;
35576;SDS011;21680;52.400;16.920;2023-05-27T06:51:54;15.10;;;3.20;;
35576;SDS011;21680;52.400;16.920;2023-05-27T06:54:20;13.30;;;3.20;;
35576;SDS011;21680;52.400;16.920;2023-05-27T06:56:45;15.60;;;3.60;;
35576;SDS011;21680;52.400;16.920;2023-05-27T06:59:11;12.60;;;3.10;;
35576;SDS011;21680;52.400;16.920;2023-05-27T07:01:36;10.00;;;3.20;;
35576;SDS011;21680;52.400;16.920;2023-05-27T07:04:01;13.60;;;3.10;;
35576;SDS011;21680;52.400;16.920;2023-05-27T07:06:26;15.30;;;3.40;;
35576;SDS011;21680;52.400;16.920;2023-05-27T07:08:52;13.80;;;2.80;;
35576;SDS011;21680;52.400;16.920;2023-05-27T07:11:17;14.80;;;2.60;;
35576;SDS011;21680;52.400;16.920;2023-05-27T07:13:42;13.60;;;3.00;;
35576;SDS011;21680;52.400;16.920;2023-05-27T07:16:08;11.40;;;3.40;;
35576;SDS011;21680;52.400;16.920;2023-05-27T07:18:33;14.30;;;3.00;;
35576;SDS011;21680;52.400;16.920;2023-05-27T07:20:58;11.80;;;2.30;;
35576;SDS011;21680;52.400;16.920;2023-05-27T07:23:23;9.20;;;2.70;;
35576;SDS011;21680;52.400;16.920;2023-05-27T07:25:49;10.50;;;2.30;;
35576;SDS011;21680;52.400;16.920;2023-05-27T07:28:15;9.50;;;2.20;;
35576;SDS011;21680;52.400;16.920;2023-05-27T07:30:40;10.30;;;2.20;;
35576;SDS011;21680;52.400;16.920;2023-05-27T07:33:05;10.70;;;2.90;;
35576;SDS011;21680;52.400;16.920;2023-05-27T07:35:31;10.00;;;2.50;;
35576;SDS011;21680;52.400;16.920;2023-05-27T07:37:56;5.60;;;2.30;;
35576;SDS011;21680;52.400;16.920;2023-05-27T07:40:21;12.60;;;2.50;;
35576;SDS011;21680;52.400;16.920;2023-05-27T07:42:46;8.70;;;2.20;;
35576;SDS011;21680;52.400;16.920;2023-05-27T07:45:12;9.70;;;2.20;;
35576;SDS011;21680;52.400;16.920;2023-05-27T07:47:37;9.90;;;2.30;;
35576;SDS011;21680;52.400;16.920;2023-05-27T07:50:02;14.10;;;2.30;;
35576;SDS011;21680;52.400;16.920;2023-05-27T07:52:28;4.90;;;2.10;;
35576;SDS011;21680;52.400;16.920;2023-05-27T07:54:53;16.50;;;2.50;;
35576;SDS011;21680;52.400;16.920;2023-05-27T07:57:19;10.60;;;2.10;;
35576;SDS011;21680;52.400;16.920;2023-05-27T07:59:44;8.20;;;2.40;;
35576;SDS011;21680;52.400;16.920;2023-05-27T08:02:09;8.80;;;2.40;;
35576;SDS011;21680;52.400;16.920;2023-05-27T08:04:35;9.10;;;2.30;;
35576;SDS011;21680;52.400;16.920;2023-05-27T08:07:00;9.80;;;2.00;;
35576;SDS011;21680;52.400;16.920;2023-05-27T08:09:25;7.00;;;2.00;;
35576;SDS011;21680;52.400;16.920;2023-05-27T08:11:51;5.20;;;1.30;;
35576;SDS011;21680;52.400;16.920;2023-05-27T08:14:16;8.50;;;2.00;;
35576;SDS011;21680;52.400;16.920;2023-05-27T08:16:42;6.80;;;1.90;;
35576;SDS011;21680;52.400;16.920;2023-05-27T08:19:07;4.90;;;1.40;;
35576;SDS011;21680;52.400;16.920;2023-05-27T08:21:32;4.60;;;1.00;;
35576;SDS011;21680;52.400;16.920;2023-05-27T08:23:57;1.80;;;1.40;;
35576;SDS011;21680;52.400;16.920;2023-05-27T08:26:23;2.60;;;1.30;;
35576;SDS011;21680;52.400;16.920;2023-05-27T08:28:48;7.00;;;1.20;;
35576;SDS011;21680;52.400;16.920;2023-05-27T08:31:13;3.10;;;1.30;;
35576;SDS011;21680;52.400;16.920;2023-05-27T08:33:39;3.00;;;1.70;;
35576;SDS011;21680;52.400;16.920;2023-05-27T08:36:05;4.90;;;1.20;;
35576;SDS011;21680;52.400;16.920;2023-05-27T08:38:31;4.30;;;1.30;;
35576;SDS011;21680;52.400;16.920;2023-05-27T08:40:56;4.60;;;1.20;;
35576;SDS011;21680;52.400;16.920;2023-05-27T08:43:22;4.50;;;1.50;;
35576;SDS011;21680;52.400;16.920;2023-05-27T08:45:48;7.90;;;1.80;;
35576;SDS011;21680;52.400;16.920;2023-05-27T08:48:15;5.90;;;1.70;;
35576;SDS011;21680;52.400;16.920;2023-05-27T08:50:40;9.50;;;1.70;;
35576;SDS011;21680;52.400;16.920;2023-05-27T08:53:06;11.40;;;2.00;;
35576;SDS011;21680;52.400;16.920;2023-05-27T08:55:33;8.50;;;2.40;;
35576;SDS011;21680;52.400;16.920;2023-05-27T08:57:59;5.90;;;1.90;;
35576;SDS011;21680;52.400;16.920;2023-05-27T09:00:27;7.90;;;1.70;;
35576;SDS011;21680;52.400;16.920;2023-05-27T09:02:53;5.90;;;2.30;;
35576;SDS011;21680;52.400;16.920;2023-05-27T09:05:24;7.40;;;1.80;;
35576;SDS011;21680;52.400;16.920;2023-05-27T09:07:50;4.10;;;1.50;;
35576;SDS011;21680;52.400;16.920;2023-05-27T09:10:16;10.90;;;2.10;;
35576;SDS011;21680;52.400;16.920;2023-05-27T09:12:44;5.90;;;2.10;;
35576;SDS011;21680;52.400;16.920;2023-05-27T09:15:11;4.40;;;1.70;;
35576;SDS011;21680;52.400;16.920;2023-05-27T09:17:40;9.30;;;2.30;;
35576;SDS011;21680;52.400;16.920;2023-05-27T09:20:07;3.20;;;1.40;;
35576;SDS011;21680;52.400;16.920;2023-05-27T09:22:32;4.80;;;1.60;;
35576;SDS011;21680;52.400;16.920;2023-05-27T09:24:59;6.50;;;1.60;;
35576;SDS011;21680;52.400;16.920;2023-05-27T09:27:25;5.40;;;1.70;;
35576;SDS011;21680;52.400;16.920;2023-05-27T09:29:52;7.90;;;1.80;;
35576;SDS011;21680;52.400;16.920;2023-05-27T09:34:55;12.00;;;1.40;;
35576;SDS011;21680;52.400;16.920;2023-05-27T09:37:24;5.30;;;1.30;;
35576;SDS011;21680;52.400;16.920;2023-05-27T09:39:53;4.30;;;1.40;;
35576;SDS011;21680;52.400;16.920;2023-05-27T09:42:19;6.60;;;2.10;;
35576;SDS011;21680;52.400;16.920;2023-05-27T09:44:45;4.40;;;1.70;;
35576;SDS011;21680;52.400;16.920;2023-05-27T09:47:13;5.40;;;1.40;;
35576;SDS011;21680;52.400;16.920;2023-05-27T09:49:41;6.30;;;1.40;;
35576;SDS011;21680;52.400;16.920;2023-05-27T09:52:08;9.60;;;1.70;;
35576;SDS011;21680;52.400;16.920;2023-05-27T09:54:37;4.10;;;1.20;;
35576;SDS011;21680;52.400;16.920;2023-05-27T09:57:03;6.60;;;1.40;;
35576;SDS011;21680;52.400;16.920;2023-05-27T09:59:30;4.90;;;1.20;;
35576;SDS011;21680;52.400;16.920;2023-05-27T10:01:56;6.90;;;1.70;;
35576;SDS011;21680;52.400;16.920;2023-05-27T10:04:23;8.30;;;1.60;;
35576;SDS011;21680;52.400;16.920;2023-05-27T10:06:48;4.40;;;1.70;;
35576;SDS011;21680;52.400;16.920;2023-05-27T10:09:14;2.90;;;1.50;;
35576;SDS011;21680;52.400;16.920;2023-05-27T10:11:42;8.60;;;1.80;;
35576;SDS011;21680;52.400;16.920;2023-05-27T10:14:09;4.70;;;1.70;;
35576;SDS011;21680;52.400;16.920;2023-05-27T10:16:35;5.60;;;1.50;;
35576;SDS011;21680;52.400;16.920;2023-05-27T10:19:01;7.80;;;2.20;;
35576;SDS011;21680;52.400;16.920;2023-05-27T10:21:28;2.30;;;1.30;;
35576;SDS011;21680;52.400;16.920;2023-05-27T10:23:57;6.20;;;1.30;;
35576;SDS011;21680;52.400;16.920;2023-05-27T10:26:35;16.30;;;1.90;;
35576;SDS011;21680;52.400;16.920;2023-05-27T10:29:10;3.50;;;1.30;;
35576;SDS011;21680;52.400;16.920;2023-05-27T10:31:44;3.70;;;1.50;;
35576;SDS011;21680;52.400;16.920;2023-05-27T10:34:13;6.00;;;1.50;;
35576;SDS011;21680;52.400;16.920;2023-05-27T10:36:39;5.20;;;1.80;;
35576;SDS011;21680;52.400;16.920;2023-05-27T10:39:06;5.90;;;1.60;;
35576;SDS011;21680;52.400;16.920;2023-05-27T10:41:41;8.40;;;2.10;;
35576;SDS011;21680;52.400;16.920;2023-05-27T10:44:07;9.80;;;2.80;;
35576;SDS011;21680;52.400;16.920;2023-05-27T10:46:43;2.60;;;1.30;;
35576;SDS011;21680;52.400;16.920;2023-05-27T10:49:25;5.00;;;1.40;;
35576;SDS011;21680;52.400;16.920;2023-05-27T10:51:52;5.80;;;1.50;;
35576;SDS011;21680;52.400;16.920;2023-05-27T10:54:19;6.60;;;1.40;;
35576;SDS011;21680;52.400;16.920;2023-05-27T10:56:47;5.10;;;1.40;;
35576;SDS011;21680;52.400;16.920;2023-05-27T10:59:20;4.80;;;1.20;;
35576;SDS011;21680;52.400;16.920;2023-05-27T11:01:53;4.60;;;1.10;;
35576;SDS011;21680;52.400;16.920;2023-05-27T11:04:20;3.10;;;1.30;;
35576;SDS011;21680;52.400;16.920;2023-05-27T11:06:59;9.10;;;1.40;;
35576;SDS011;21680;52.400;16.920;2023-05-27T11:09:25;3.80;;;1.50;;
35576;SDS011;21680;52.400;16.920;2023-05-27T11:11:51;3.80;;;1.60;;
35576;SDS011;21680;52.400;16.920;2023-05-27T11:14:18;7.30;;;1.50;;
35576;SDS011;21680;52.400;16.920;2023-05-27T11:16:47;5.00;;;1.60;;
35576;SDS011;21680;52.400;16.920;2023-05-27T11:19:16;4.70;;;1.40;;
35576;SDS011;21680;52.400;16.920;2023-05-27T11:21:44;5.00;;;1.50;;
35576;SDS011;21680;52.400;16.920;2023-05-27T11:24:17;2.30;;;1.20;;
35576;SDS011;21680;52.400;16.920;2023-05-27T11:26:44;3.20;;;1.30;;
35576;SDS011;21680;52.400;16.920;2023-05-27T11:29:11;3.80;;;1.60;;
35576;SDS011;21680;52.400;16.920;2023-05-27T11:31:38;9.60;;;2.00;;
35576;SDS011;21680;52.400;16.920;2023-05-27T11:34:11;6.70;;;1.60;;
35576;SDS011;21680;52.400;16.920;2023-05-27T11:36:38;4.40;;;1.30;;
35576;SDS011;21680;52.400;16.920;2023-05-27T11:39:04;3.80;;;1.80;;
35576;SDS011;21680;52.400;16.920;2023-05-27T11:41:30;5.70;;;1.80;;
35576;SDS011;21680;52.400;16.920;2023-05-27T11:43:56;4.90;;;1.70;;
35576;SDS011;21680;52.400;16.920;2023-05-27T11:46:22;3.00;;;1.70;;
35576;SDS011;21680;52.400;16.920;2023-05-27T11:48:48;3.70;;;1.50;;
35576;SDS011;21680;52.400;16.920;2023-05-27T11:51:14;18.10;;;2.10;;
35576;SDS011;21680;52.400;16.920;2023-05-27T11:53:46;3.60;;;1.40;;
35576;SDS011;21680;52.400;16.920;2023-05-27T11:56:12;5.80;;;1.90;;
35576;SDS011;21680;52.400;16.920;2023-05-27T11:58:38;3.00;;;1.30;;
35576;SDS011;21680;52.400;16.920;2023-05-27T12:01:04;4.00;;;1.50;;
35576;SDS011;21680;52.400;16.920;2023-05-27T12:03:30;4.10;;;1.40;;
35576;SDS011;21680;52.400;16.920;2023-05-27T12:05:58;3.00;;;1.70;;
35576;SDS011;21680;52.400;16.920;2023-05-27T12:08:23;2.00;;;1.30;;
35576;SDS011;21680;52.400;16.920;2023-05-27T12:10:49;5.30;;;2.10;;
35576;SDS011;21680;52.400;16.920;2023-05-27T12:13:18;2.20;;;1.40;;
35576;SDS011;21680;52.400;16.920;2023-05-27T12:15:48;5.10;;;3.60;;
35576;SDS011;21680;52.400;16.920;2023-05-27T12:18:14;5.40;;;1.90;;
35576;SDS011;21680;52.400;16.920;2023-05-27T12:20:39;9.60;;;1.80;;
35576;SDS011;21680;52.400;16.920;2023-05-27T12:23:04;2.60;;;1.90;;
35576;SDS011;21680;52.400;16.920;2023-05-27T12:25:30;5.00;;;1.80;;
35576;SDS011;21680;52.400;16.920;2023-05-27T12:27:56;6.30;;;1.50;;
35576;SDS011;21680;52.400;16.920;2023-05-27T12:30:22;3.80;;;2.00;;
35576;SDS011;21680;52.400;16.920;2023-05-27T12:32:47;2.70;;;1.40;;
35576;SDS011;21680;52.400;16.920;2023-05-27T12:35:12;4.00;;;1.80;;
35576;SDS011;21680;52.400;16.920;2023-05-27T12:37:38;4.20;;;1.40;;
35576;SDS011;21680;52.400;16.920;2023-05-27T12:40:03;4.20;;;1.30;;
35576;SDS011;21680;52.400;16.920;2023-05-27T12:42:30;2.50;;;1.40;;
35576;SDS011;21680;52.400;16.920;2023-05-27T12:44:56;1.60;;;1.20;;
35576;SDS011;21680;52.400;16.920;2023-05-27T12:47:21;5.50;;;1.80;;
35576;SDS011;21680;52.400;16.920;2023-05-27T12:49:46;5.20;;;1.70;;
35576;SDS011;21680;52.400;16.920;2023-05-27T12:52:12;6.90;;;1.60;;
35576;SDS011;21680;52.400;16.920;2023-05-27T12:54:38;3.90;;;1.60;;
35576;SDS011;21680;52.400;16.920;2023-05-27T12:57:03;4.80;;;1.70;;
35576;SDS011;21680;52.400;16.920;2023-05-27T12:59:32;4.20;;;1.80;;
35576;SDS011;21680;52.400;16.920;2023-05-27T13:01:58;7.50;;;1.50;;
35576;SDS011;21680;52.400;16.920;2023-05-27T13:04:24;5.30;;;1.60;;
35576;SDS011;21680;52.400;16.920;2023-05-27T13:06:50;1.70;;;1.20;;
35576;SDS011;21680;52.400;16.920;2023-05-27T13:09:15;3.90;;;1.30;;
35576;SDS011;21680;52.400;16.920;2023-05-27T13:11:41;2.10;;;1.30;;
35576;SDS011;21680;52.400;16.920;2023-05-27T13:14:07;3.70;;;2.00;;
35576;SDS011;21680;52.400;16.920;2023-05-27T13:16:33;4.80;;;1.80;;
35576;SDS011;21680;52.400;16.920;2023-05-27T13:18:58;2.60;;;1.60;;
35576;SDS011;21680;52.400;16.920;2023-05-27T13:21:24;3.80;;;1.40;;
35576;SDS011;21680;52.400;16.920;2023-05-27T13:23:49;3.00;;;1.40;;
35576;SDS011;21680;52.400;16.920;2023-05-27T13:26:14;4.20;;;1.50;;
35576;SDS011;21680;52.400;16.920;2023-05-27T13:28:40;2.20;;;1.20;;
35576;SDS011;21680;52.400;16.920;2023-05-27T13:31:06;6.40;;;1.80;;
35576;SDS011;21680;52.400;16.920;2023-05-27T13:33:32;3.60;;;1.50;;
35576;SDS011;21680;52.400;16.920;2023-05-27T13:35:58;4.70;;;1.50;;
35576;SDS011;21680;52.400;16.920;2023-05-27T13:38:23;4.00;;;1.40;;
35576;SDS011;21680;52.400;16.920;2023-05-27T13:40:48;5.40;;;1.90;;
35576;SDS011;21680;52.400;16.920;2023-05-27T13:43:15;4.90;;;1.50;;
35576;SDS011;21680;52.400;16.920;2023-05-27T13:45:41;4.40;;;2.00;;
35576;SDS011;21680;52.400;16.920;2023-05-27T13:48:07;4.50;;;1.90;;
35576;SDS011;21680;52.400;16.920;2023-05-27T13:50:33;7.50;;;1.50;;
35576;SDS011;21680;52.400;16.920;2023-05-27T13:52:59;2.20;;;1.40;;
35576;SDS011;21680;52.400;16.920;2023-05-27T13:55:24;2.90;;;1.50;;
35576;SDS011;21680;52.400;16.920;2023-05-27T13:57:50;2.50;;;1.30;;
35576;SDS011;21680;52.400;16.920;2023-05-27T14:00:15;4.40;;;1.50;;
35576;SDS011;21680;52.400;16.920;2023-05-27T14:02:41;3.80;;;1.20;;
35576;SDS011;21680;52.400;16.920;2023-05-27T14:05:07;5.50;;;1.70;;
35576;SDS011;21680;52.400;16.920;2023-05-27T14:07:33;4.10;;;1.90;;
35576;SDS011;21680;52.400;16.920;2023-05-27T14:10:04;4.10;;;1.90;;
35576;SDS011;21680;52.400;16.920;2023-05-27T14:12:30;3.60;;;1.60;;
35576;SDS011;21680;52.400;16.920;2023-05-27T14:14:56;7.00;;;1.80;;
35576;SDS011;21680;52.400;16.920;2023-05-27T14:17:21;2.80;;;1.10;;
35576;SDS011;21680;52.400;16.920;2023-05-27T14:19:46;2.00;;;1.30;;
35576;SDS011;21680;52.400;16.920;2023-05-27T14:22:12;4.90;;;1.80;;
35576;SDS011;21680;52.400;16.920;2023-05-27T14:24:37;4.60;;;1.50;;